createdAt,value
2023-05-05T00:00:42.514Z,3818.00
2023-05-05T00:01:42.544Z,3799.00
2023-05-05T00:02:42.683Z,3782.00
2023-05-05T00:03:42.833Z,3807.00
2023-05-05T00:04:42.674Z,3782.00
2023-05-05T00:05:42.708Z,3796.00
2023-05-05T00:06:42.758Z,3792.00
2023-05-05T00:07:42.776Z,3800.00
2023-05-05T00:08:42.829Z,3795.00
2023-05-05T00:09:42.866Z,3777.00
2023-05-05T00:10:42.910Z,3780.00
2023-05-05T00:11:42.956Z,3790.00
2023-05-05T00:12:43.129Z,3776.00
2023-05-05T00:13:43.110Z,3777.00
2023-05-05T00:14:43.131Z,3780.00
2023-05-05T00:15:43.141Z,3757.00
2023-05-05T00:16:43.269Z,3778.00
2023-05-05T00:17:43.331Z,3779.00
2023-05-05T00:18:43.319Z,3779.00
2023-05-05T00:19:43.340Z,3761.00
2023-05-05T00:20:43.423Z,3758.00
2023-05-05T00:21:43.452Z,3750.00
2023-05-05T00:22:43.467Z,3767.00
2023-05-05T00:23:43.534Z,3762.00
2023-05-05T00:24:43.605Z,3755.00
2023-05-05T00:25:43.669Z,3762.00
2023-05-05T00:26:43.679Z,3760.00
2023-05-05T00:27:43.719Z,3747.00
2023-05-05T00:28:43.772Z,3753.00
2023-05-05T00:29:43.791Z,3758.00
2023-05-05T00:30:43.840Z,3745.00
2023-05-05T00:31:43.964Z,3738.00
2023-05-05T00:32:43.996Z,3750.00
2023-05-05T00:33:43.991Z,3744.00
2023-05-05T00:34:44.056Z,3744.00
2023-05-05T00:35:44.109Z,3734.00
2023-05-05T00:36:44.147Z,3736.00
2023-05-05T00:37:44.168Z,3743.00
2023-05-05T00:38:44.279Z,3728.00
2023-05-05T00:39:44.291Z,3730.00
2023-05-05T00:40:44.349Z,3720.00
2023-05-05T00:41:44.387Z,3735.00
2023-05-05T00:42:44.428Z,3722.00
2023-05-05T00:43:44.512Z,3713.00
2023-05-05T00:44:44.555Z,3734.00
2023-05-05T00:45:44.581Z,3714.00
2023-05-05T00:46:44.704Z,3710.00
2023-05-05T00:47:44.775Z,3720.00
2023-05-05T00:48:44.761Z,3704.00
2023-05-05T00:49:44.854Z,3709.00
2023-05-05T00:50:44.922Z,3715.00
2023-05-05T00:51:44.980Z,3695.00
2023-05-05T00:52:44.977Z,3713.00
2023-05-05T00:53:45.082Z,3703.00
2023-05-05T00:54:45.102Z,3706.00
2023-05-05T00:55:45.141Z,3686.00
2023-05-05T00:56:45.203Z,3681.00
2023-05-05T00:57:45.260Z,3687.00
2023-05-05T00:58:45.284Z,3678.00
2023-05-05T00:59:45.368Z,3684.00
2023-05-05T01:00:45.427Z,3700.00
2023-05-05T01:01:45.500Z,3677.00
2023-05-05T01:02:45.615Z,3678.00
2023-05-05T01:03:45.700Z,3673.00
2023-05-05T01:04:45.637Z,3678.00
2023-05-05T01:05:45.734Z,3669.00
2023-05-05T01:06:45.778Z,3667.00
2023-05-05T01:07:45.798Z,3674.00
2023-05-05T01:08:45.890Z,3656.00
2023-05-05T01:09:45.957Z,3653.00
2023-05-05T01:10:46.027Z,3661.00
2023-05-05T01:11:46.060Z,3652.00
2023-05-05T01:12:46.122Z,3662.00
2023-05-05T01:13:46.137Z,3660.00
2023-05-05T01:14:46.216Z,3649.00
2023-05-05T01:15:46.250Z,3651.00
2023-05-05T01:16:46.351Z,3654.00
2023-05-05T01:17:46.414Z,3650.00
2023-05-05T01:18:46.494Z,3633.00
2023-05-05T01:19:46.511Z,3636.00
2023-05-05T01:20:46.606Z,3642.00
2023-05-05T01:21:46.646Z,3632.00
2023-05-05T01:22:46.686Z,3614.00
2023-05-05T01:23:46.740Z,3621.00
2023-05-05T01:24:46.830Z,3624.00
2023-05-05T01:25:46.840Z,3627.00
2023-05-05T01:26:46.920Z,3624.00
2023-05-05T01:27:47.010Z,3613.00
2023-05-05T01:28:47.031Z,3612.00
2023-05-05T01:29:47.121Z,3618.00
2023-05-05T01:30:47.172Z,3609.00
2023-05-05T01:31:47.241Z,3631.00
2023-05-05T01:32:47.400Z,3605.00
2023-05-05T01:33:47.334Z,3605.00
2023-05-05T01:34:47.421Z,3602.00
2023-05-05T01:35:47.466Z,3609.00
2023-05-05T01:36:47.529Z,3597.00
2023-05-05T01:37:47.580Z,3605.00
2023-05-05T01:38:47.644Z,3599.00
2023-05-05T01:39:47.680Z,3593.00
2023-05-05T01:40:47.765Z,3589.00
2023-05-05T01:41:47.797Z,3591.00
2023-05-05T01:42:47.871Z,3585.00
2023-05-05T01:43:47.926Z,3588.00
2023-05-05T01:44:48.071Z,3584.00
2023-05-05T01:45:48.156Z,3580.00
2023-05-05T01:46:48.125Z,3577.00
2023-05-05T01:47:48.233Z,3556.00
2023-05-05T01:48:48.222Z,3576.00
2023-05-05T01:49:48.300Z,3600.00
2023-05-05T01:50:48.375Z,3560.00
2023-05-05T01:51:48.440Z,3552.00
2023-05-05T01:52:48.484Z,3554.00
2023-05-05T01:53:48.546Z,3560.00
2023-05-05T01:54:48.616Z,3547.00
2023-05-05T01:55:48.695Z,3547.00
2023-05-05T01:56:48.716Z,3572.00
2023-05-05T01:57:48.797Z,3550.00
2023-05-05T01:58:48.840Z,3545.00
2023-05-05T01:59:48.956Z,3546.00
2023-05-05T02:00:48.955Z,3537.00
2023-05-05T02:01:49.032Z,3543.00
2023-05-05T02:02:49.327Z,3547.00
2023-05-05T02:03:49.149Z,3539.00
2023-05-05T02:04:49.220Z,3527.00
2023-05-05T02:05:49.295Z,3527.00
2023-05-05T02:06:49.367Z,3529.00
2023-05-05T02:07:49.379Z,3535.00
2023-05-05T02:08:49.459Z,3534.00
2023-05-05T02:09:49.493Z,3521.00
2023-05-05T02:10:49.611Z,3521.00
2023-05-05T02:11:49.650Z,3510.00
2023-05-05T02:12:49.713Z,3528.00
2023-05-05T02:13:49.746Z,3505.00
2023-05-05T02:14:49.843Z,3511.00
2023-05-05T02:15:49.866Z,3508.00
2023-05-05T02:16:49.915Z,3518.00
2023-05-05T02:17:50.010Z,3506.00
2023-05-05T02:18:50.076Z,3498.00
2023-05-05T02:19:50.110Z,3513.00
2023-05-05T02:20:50.193Z,3499.00
2023-05-05T02:21:50.243Z,3493.00
2023-05-05T02:22:50.266Z,3499.00
2023-05-05T02:23:50.347Z,3500.00
2023-05-05T02:24:50.348Z,3499.00
2023-05-05T02:25:50.432Z,3478.00
2023-05-05T02:26:50.465Z,3495.00
2023-05-05T02:27:50.544Z,3483.00
2023-05-05T02:28:50.549Z,3488.00
2023-05-05T02:29:50.633Z,3488.00
2023-05-05T02:30:50.669Z,3484.00
2023-05-05T02:31:50.807Z,3474.00
2023-05-05T02:32:50.820Z,3475.00
2023-05-05T02:33:50.796Z,3476.00
2023-05-05T02:34:50.834Z,3470.00
2023-05-05T02:35:50.905Z,3472.00
2023-05-05T02:36:50.941Z,3453.00
2023-05-05T02:37:51.048Z,3470.00
2023-05-05T02:38:51.028Z,3463.00
2023-05-05T02:39:51.106Z,3457.00
2023-05-05T02:40:51.171Z,3462.00
2023-05-05T02:41:51.149Z,3473.00
2023-05-05T02:42:51.263Z,3454.00
2023-05-05T02:43:51.285Z,3438.00
2023-05-05T02:44:51.269Z,3451.00
2023-05-05T02:45:51.347Z,3430.00
2023-05-05T02:46:51.409Z,3450.00
2023-05-05T02:47:51.443Z,3442.00
2023-05-05T02:48:51.546Z,3433.00
2023-05-05T02:49:51.506Z,3439.00
2023-05-05T02:50:51.557Z,3424.00
2023-05-05T02:51:51.658Z,3427.00
2023-05-05T02:52:51.669Z,3432.00
2023-05-05T02:53:51.703Z,3435.00
2023-05-05T02:54:51.755Z,3420.00
2023-05-05T02:55:51.778Z,3424.00
2023-05-05T02:56:51.838Z,3407.00
2023-05-05T02:57:51.875Z,3422.00
2023-05-05T02:58:51.884Z,3445.00
2023-05-05T02:59:51.927Z,3409.00
2023-05-05T03:00:51.994Z,3412.00
2023-05-05T03:01:52.103Z,3418.00
2023-05-05T03:02:52.181Z,3413.00
2023-05-05T03:03:52.324Z,3400.00
2023-05-05T03:04:52.170Z,3410.00
2023-05-05T03:05:52.199Z,3414.00
2023-05-05T03:06:52.254Z,3399.00
2023-05-05T03:07:52.258Z,3409.00
2023-05-05T03:08:52.313Z,3398.00
2023-05-05T03:09:52.362Z,3405.00
2023-05-05T03:10:52.380Z,3374.00
2023-05-05T03:11:52.415Z,3394.00
2023-05-05T03:12:52.539Z,3380.00
2023-05-05T03:13:52.533Z,3387.00
2023-05-05T03:14:52.546Z,3372.00
2023-05-05T03:15:52.581Z,3369.00
2023-05-05T03:16:52.592Z,3370.00
2023-05-05T03:17:52.688Z,3375.00
2023-05-05T03:18:52.626Z,3373.00
2023-05-05T03:19:52.669Z,3373.00
2023-05-05T03:20:52.701Z,3372.00
2023-05-05T03:21:52.694Z,3372.00
2023-05-05T03:22:52.764Z,3352.00
2023-05-05T03:23:52.754Z,3354.00
2023-05-05T03:24:52.783Z,3348.00
2023-05-05T03:25:52.785Z,3357.00
2023-05-05T03:26:52.787Z,3351.00
2023-05-05T03:27:52.796Z,3364.00
2023-05-05T03:28:52.829Z,3357.00
2023-05-05T03:29:52.834Z,3336.00
2023-05-05T03:30:52.846Z,3344.00
2023-05-05T03:31:52.915Z,3335.00
2023-05-05T03:32:52.994Z,3337.00
2023-05-05T03:33:52.975Z,3332.00
2023-05-05T03:34:53.010Z,3340.00
2023-05-05T03:35:53.035Z,3350.00
2023-05-05T03:36:53.031Z,3345.00
2023-05-05T03:37:53.035Z,3333.00
2023-05-05T03:38:53.095Z,3333.00
2023-05-05T03:39:53.084Z,3331.00
2023-05-05T03:40:53.093Z,3319.00
2023-05-05T03:41:53.103Z,3322.00
2023-05-05T03:42:53.151Z,3317.00
2023-05-05T03:43:53.172Z,3304.00
2023-05-05T03:44:53.212Z,3331.00
2023-05-05T03:45:53.273Z,3307.00
2023-05-05T03:46:53.197Z,3318.00
2023-05-05T03:47:53.334Z,3313.00
2023-05-05T03:48:53.320Z,3307.00
2023-05-05T03:49:53.279Z,3316.00
2023-05-05T03:50:53.293Z,3291.00
2023-05-05T03:51:53.312Z,3307.00
2023-05-05T03:52:53.343Z,3287.00
2023-05-05T03:53:53.397Z,3290.00
2023-05-05T03:54:53.360Z,3286.00
2023-05-05T03:55:53.364Z,3295.00
2023-05-05T03:56:53.357Z,3298.00
2023-05-05T03:57:53.418Z,3293.00
2023-05-05T03:58:53.425Z,3284.00
2023-05-05T03:59:53.388Z,3290.00
2023-05-05T04:00:53.436Z,3302.00
2023-05-05T04:01:53.414Z,3308.00
2023-05-05T04:02:53.485Z,3263.00
2023-05-05T04:03:53.480Z,3256.00
2023-05-05T04:04:53.430Z,3207.00
2023-05-05T04:05:53.498Z,3180.00
2023-05-05T04:06:53.433Z,3157.00
2023-05-05T04:07:53.418Z,3112.00
2023-05-05T04:08:53.437Z,3099.00
2023-05-05T04:09:53.465Z,3065.00
2023-05-05T04:10:53.466Z,3036.00
2023-05-05T04:11:53.455Z,3007.00
2023-05-05T04:12:53.480Z,2975.00
2023-05-05T04:13:53.512Z,2932.00
2023-05-05T04:14:53.459Z,2919.00
2023-05-05T04:15:53.544Z,2879.00
2023-05-05T04:16:53.455Z,2850.00
2023-05-05T04:17:53.562Z,2813.00
2023-05-05T04:18:53.494Z,2782.00
2023-05-05T04:19:53.513Z,2764.00
2023-05-05T04:20:53.511Z,2735.00
2023-05-05T04:21:53.615Z,2715.00
2023-05-05T04:22:53.529Z,2691.00
2023-05-05T04:23:53.528Z,2658.00
2023-05-05T04:24:53.576Z,2647.00
2023-05-05T04:25:53.572Z,2643.00
2023-05-05T04:26:53.575Z,2626.00
2023-05-05T04:27:53.599Z,2586.00
2023-05-05T04:28:53.635Z,2594.00
2023-05-05T04:29:53.642Z,2567.00
2023-05-05T04:30:53.765Z,2553.00
2023-05-05T04:31:53.693Z,2572.00
2023-05-05T04:32:53.812Z,2568.00
2023-05-05T04:33:53.712Z,2555.00
2023-05-05T04:34:53.697Z,2566.00
2023-05-05T04:35:53.713Z,2564.00
2023-05-05T04:36:53.753Z,2562.00
2023-05-05T04:37:53.750Z,2564.00
2023-05-05T04:38:53.846Z,2552.00
2023-05-05T04:39:53.823Z,2574.00
2023-05-05T04:40:53.746Z,2585.00
2023-05-05T04:41:53.821Z,2601.00
2023-05-05T04:42:53.838Z,2598.00
2023-05-05T04:43:53.826Z,2629.00
2023-05-05T04:44:53.773Z,2623.00
2023-05-05T04:45:53.797Z,2640.00
2023-05-05T04:46:53.919Z,2637.00
2023-05-05T04:47:53.819Z,2643.00
2023-05-05T04:48:53.764Z,2658.00
2023-05-05T04:49:53.769Z,2654.00
2023-05-05T04:50:53.774Z,2661.00
2023-05-05T04:51:53.829Z,2660.00
2023-05-05T04:52:53.786Z,2663.00
2023-05-05T04:53:53.792Z,2673.00
2023-05-05T04:54:53.797Z,2695.00
2023-05-05T04:55:53.812Z,2694.00
2023-05-05T04:56:53.816Z,2707.00
2023-05-05T04:57:53.784Z,2686.00
2023-05-05T04:58:53.832Z,2686.00
2023-05-05T04:59:53.841Z,2710.00
2023-05-05T05:00:53.836Z,2711.00
2023-05-05T05:01:53.823Z,2707.00
2023-05-05T05:02:53.883Z,2701.00
2023-05-05T05:03:53.947Z,2725.00
2023-05-05T05:04:53.811Z,2720.00
2023-05-05T05:05:53.834Z,2722.00
2023-05-05T05:06:53.815Z,2726.00
2023-05-05T05:07:53.818Z,2743.00
2023-05-05T05:08:53.832Z,2734.00
2023-05-05T05:09:53.840Z,2749.00
2023-05-05T05:10:53.837Z,2736.00
2023-05-05T05:11:53.852Z,2754.00
2023-05-05T05:12:53.905Z,2757.00
2023-05-05T05:13:53.829Z,2770.00
2023-05-05T05:14:53.875Z,2769.00
2023-05-05T05:15:53.841Z,2755.00
2023-05-05T05:16:53.897Z,2752.00
2023-05-05T05:17:53.920Z,2770.00
2023-05-05T05:18:53.902Z,2782.00
2023-05-05T05:19:53.874Z,2773.00
2023-05-05T05:20:53.875Z,2776.00
2023-05-05T05:21:53.875Z,2768.00
2023-05-05T05:22:54.015Z,2773.00
2023-05-05T05:23:53.894Z,2784.00
2023-05-05T05:24:53.909Z,2786.00
2023-05-05T05:25:53.865Z,2766.00
2023-05-05T05:26:53.942Z,2783.00
2023-05-05T05:28:08.343Z,2771.00
2023-05-05T05:28:54.897Z,2772.00
2023-05-05T05:29:53.838Z,2775.00
2023-05-05T05:30:53.849Z,2776.00
2023-05-05T05:31:53.894Z,2794.00
2023-05-05T05:32:53.899Z,2796.00
2023-05-05T05:33:53.856Z,2812.00
2023-05-05T05:34:53.831Z,2772.00
2023-05-05T05:35:53.815Z,2732.00
2023-05-05T05:36:53.815Z,2706.00
2023-05-05T05:37:53.823Z,2702.00
2023-05-05T05:38:53.790Z,2627.00
2023-05-05T05:39:53.856Z,2584.00
2023-05-05T05:40:53.801Z,2548.00
2023-05-05T05:41:53.816Z,2547.00
2023-05-05T05:42:53.819Z,2527.00
2023-05-05T05:43:53.769Z,2516.00
2023-05-05T05:44:54.185Z,2548.00
2023-05-05T05:45:53.794Z,2577.00
2023-05-05T05:46:53.734Z,2586.00
2023-05-05T05:47:53.828Z,2608.00
2023-05-05T05:48:53.816Z,2633.00
2023-05-05T05:49:53.785Z,2675.00
2023-05-05T05:50:53.861Z,2711.00
2023-05-05T05:51:53.780Z,2733.00
2023-05-05T05:52:53.746Z,2746.00
2023-05-05T05:53:53.824Z,2778.00
2023-05-05T05:54:53.899Z,2784.00
2023-05-05T05:55:53.998Z,2814.00
2023-05-05T05:56:54.010Z,2816.00
2023-05-05T05:57:54.030Z,2829.00
2023-05-05T05:58:54.053Z,2857.00
2023-05-05T05:59:54.075Z,2866.00
2023-05-05T06:00:54.111Z,2896.00
2023-05-05T06:01:54.170Z,2917.00
2023-05-05T06:02:54.315Z,2915.00
2023-05-05T06:03:54.239Z,2948.00
2023-05-05T06:04:54.159Z,2955.00
2023-05-05T06:05:54.157Z,2970.00
2023-05-05T06:06:54.163Z,2986.00
2023-05-05T06:07:54.208Z,3013.00
2023-05-05T06:08:54.208Z,3031.00
2023-05-05T06:09:54.171Z,3043.00
2023-05-05T06:10:54.217Z,3062.00
2023-05-05T06:11:54.217Z,3090.00
2023-05-05T06:12:54.220Z,3082.00
2023-05-05T06:13:54.226Z,3093.00
2023-05-05T06:14:54.239Z,3102.00
2023-05-05T06:15:54.235Z,3102.00
2023-05-05T06:16:54.281Z,3099.00
2023-05-05T06:17:54.341Z,3081.00
2023-05-05T06:18:54.315Z,3066.00
2023-05-05T06:19:54.648Z,3051.00
2023-05-05T06:20:54.440Z,3080.00
2023-05-05T06:21:54.534Z,3071.00
2023-05-05T06:22:54.618Z,3049.00
2023-05-05T06:23:54.651Z,3031.00
2023-05-05T06:24:54.668Z,3035.00
2023-05-05T06:25:54.727Z,3040.00
2023-05-05T06:26:54.759Z,3032.00
2023-05-05T06:27:54.808Z,3051.00
2023-05-05T06:28:54.916Z,3042.00
2023-05-05T06:29:54.918Z,3018.00
2023-05-05T06:30:54.964Z,3019.00
2023-05-05T06:31:55.062Z,3008.00
2023-05-05T06:32:55.079Z,3009.00
2023-05-05T06:33:55.098Z,3032.00
2023-05-05T06:34:55.131Z,2993.00
2023-05-05T06:35:55.214Z,2949.00
2023-05-05T06:36:55.232Z,2909.00
2023-05-05T06:37:55.273Z,2890.00
2023-05-05T06:38:55.293Z,2855.00
2023-05-05T06:39:55.365Z,2813.00
2023-05-05T06:40:55.451Z,2750.00
2023-05-05T06:41:55.460Z,2689.00
2023-05-05T06:42:55.506Z,2635.00
2023-05-05T06:43:55.517Z,2599.00
2023-05-05T06:44:55.567Z,2604.00
2023-05-05T06:45:55.648Z,2616.00
2023-05-05T06:46:55.729Z,2566.00
2023-05-05T06:47:55.866Z,2564.00
2023-05-05T06:48:55.827Z,2551.00
2023-05-05T06:49:55.846Z,2555.00
2023-05-05T06:50:55.943Z,2507.00
2023-05-05T06:51:55.966Z,2479.00
2023-05-05T06:52:56.060Z,2458.00
2023-05-05T06:53:56.094Z,2442.00
2023-05-05T06:54:56.171Z,2445.00
2023-05-05T06:55:56.208Z,2406.00
2023-05-05T06:56:58.183Z,2421.00
2023-05-05T06:57:56.294Z,2440.00
2023-05-05T06:58:56.242Z,2489.00
2023-05-05T06:59:56.697Z,2407.00
2023-05-05T07:00:56.234Z,2373.00
2023-05-05T07:01:56.569Z,2346.00
2023-05-05T07:02:56.236Z,2319.00
2023-05-05T07:03:56.208Z,2288.00
2023-05-05T07:04:56.242Z,2242.00
2023-05-05T07:05:56.173Z,2278.00
2023-05-05T07:06:56.164Z,2243.00
2023-05-05T07:07:56.195Z,2228.00
2023-05-05T07:08:56.162Z,2218.00
2023-05-05T07:09:56.160Z,2242.00
2023-05-05T07:10:56.204Z,2245.00
2023-05-05T07:11:56.162Z,2248.00
2023-05-05T07:12:56.457Z,2213.00
2023-05-05T07:13:56.495Z,2199.00
2023-05-05T07:14:56.129Z,2186.00
2023-05-05T07:15:56.141Z,2183.00
2023-05-05T07:16:56.130Z,2233.00
2023-05-05T07:17:56.145Z,2281.00
2023-05-05T07:18:56.115Z,2295.00
2023-05-05T07:19:56.080Z,2286.00
2023-05-05T07:20:56.075Z,2304.00
2023-05-05T07:21:56.069Z,2307.00
2023-05-05T07:22:56.083Z,2315.00
2023-05-05T07:23:56.090Z,2312.00
2023-05-05T07:24:56.052Z,2338.00
2023-05-05T07:25:56.031Z,2327.00
2023-05-05T07:26:56.036Z,2333.00
2023-05-05T07:27:56.038Z,2337.00
2023-05-05T07:28:56.117Z,2328.00
2023-05-05T07:29:56.050Z,2275.00
2023-05-05T07:30:56.008Z,2299.00
2023-05-05T07:31:56.049Z,2279.00
2023-05-05T07:32:55.995Z,2086.00
2023-05-05T07:33:56.001Z,1840.00
2023-05-05T07:34:55.967Z,1805.00
2023-05-05T07:35:55.979Z,1746.00
2023-05-05T07:36:55.952Z,1626.00
2023-05-05T07:37:55.949Z,1631.00
2023-05-05T07:38:55.994Z,1688.00
2023-05-05T07:39:55.949Z,1694.00
2023-05-05T07:40:55.959Z,1731.00
2023-05-05T07:41:55.963Z,1747.00
2023-05-05T07:42:55.935Z,1751.00
2023-05-05T07:43:55.924Z,1755.00
2023-05-05T07:44:56.067Z,1766.00
2023-05-05T07:45:55.948Z,1781.00
2023-05-05T07:46:55.892Z,1819.00
2023-05-05T07:47:55.912Z,1820.00
2023-05-05T07:48:55.855Z,1831.00
2023-05-05T07:49:55.904Z,1856.00
2023-05-05T07:50:55.980Z,1878.00
2023-05-05T07:51:56.011Z,1877.00
2023-05-05T07:53:56.146Z,1877.00
2023-05-05T07:54:56.191Z,1876.00
2023-05-05T07:55:56.244Z,1877.00
2023-05-05T07:56:56.304Z,1872.00
2023-05-05T07:57:56.319Z,1849.00
2023-05-05T07:58:56.389Z,1854.00
2023-05-05T07:59:56.395Z,1841.00
2023-05-05T08:00:56.492Z,1822.00
2023-05-05T08:01:56.451Z,1839.00
2023-05-05T08:02:56.560Z,1817.00
2023-05-05T08:03:56.638Z,1784.00
2023-05-05T08:04:56.567Z,1771.00
2023-05-05T08:05:56.600Z,1754.00
2023-05-05T08:06:56.643Z,1753.00
2023-05-05T08:07:56.662Z,1729.00
2023-05-05T08:08:56.647Z,1723.00
2023-05-05T08:09:56.688Z,1720.00
2023-05-05T08:10:56.722Z,1682.00
2023-05-05T08:11:56.720Z,1671.00
2023-05-05T08:12:56.783Z,1674.00
2023-05-05T08:13:56.802Z,1645.00
2023-05-05T08:14:56.802Z,1643.00
2023-05-05T08:15:56.851Z,1627.00
2023-05-05T08:16:56.907Z,1625.00
2023-05-05T08:17:56.870Z,1622.00
2023-05-05T08:18:56.874Z,1606.00
2023-05-05T08:19:56.863Z,1587.00
2023-05-05T08:20:57.059Z,1570.00
2023-05-05T08:21:57.759Z,1546.00
2023-05-05T08:22:56.919Z,1540.00
2023-05-05T08:23:57.004Z,1526.00
2023-05-05T08:24:56.938Z,1526.00
2023-05-05T08:25:56.966Z,1499.00
2023-05-05T08:26:56.950Z,1486.00
2023-05-05T08:27:56.987Z,1453.00
2023-05-05T08:28:56.971Z,1108.00
2023-05-05T08:29:57.025Z,648.00
2023-05-05T08:30:57.034Z,573.00
2023-05-05T08:31:57.275Z,523.00
2023-05-05T08:32:57.220Z,544.00
2023-05-05T08:33:57.172Z,558.00
2023-05-05T08:34:57.238Z,507.00
2023-05-05T08:35:57.300Z,494.00
2023-05-05T08:36:57.354Z,489.00
2023-05-05T08:37:59.286Z,504.00
2023-05-05T08:38:57.491Z,498.00
2023-05-05T08:39:57.522Z,516.00
2023-05-05T08:40:57.566Z,569.00
2023-05-05T08:41:57.606Z,587.00
2023-05-05T08:42:57.648Z,560.00
2023-05-05T08:43:57.706Z,558.00
2023-05-05T08:44:59.097Z,577.00
2023-05-05T08:45:57.811Z,598.00
2023-05-05T08:46:57.922Z,564.00
2023-05-05T08:47:57.907Z,509.00
2023-05-05T08:48:57.943Z,504.00
2023-05-05T08:49:57.881Z,514.00
2023-05-05T08:50:59.846Z,503.00
2023-05-05T08:51:57.971Z,508.00
2023-05-05T08:52:58.044Z,504.00
2023-05-05T08:53:58.083Z,516.00
2023-05-05T08:54:58.117Z,496.00
2023-05-05T08:55:58.160Z,495.00
2023-05-05T08:56:58.208Z,498.00
2023-05-05T08:57:58.343Z,545.00
2023-05-05T08:58:58.328Z,538.00
2023-05-05T08:59:58.373Z,549.00
2023-05-05T09:00:58.482Z,567.00
2023-05-05T09:01:58.493Z,582.00
2023-05-05T09:02:58.778Z,561.00
2023-05-05T09:03:58.681Z,527.00
2023-05-05T09:04:58.743Z,500.00
2023-05-05T09:05:58.736Z,505.00
2023-05-05T09:06:58.789Z,506.00
2023-05-05T09:07:58.837Z,520.00
2023-05-05T09:08:59.739Z,528.00
2023-05-05T09:09:58.906Z,503.00
2023-05-05T09:10:58.973Z,508.00
2023-05-05T09:11:59.053Z,523.00
2023-05-05T09:12:59.042Z,513.00
2023-05-05T09:13:59.070Z,499.00
2023-05-05T09:14:59.412Z,508.00
2023-05-05T09:15:59.099Z,505.00
2023-05-05T09:16:59.145Z,502.00
2023-05-05T09:17:59.158Z,502.00
2023-05-05T09:18:59.140Z,504.00
2023-05-05T09:19:59.150Z,509.00
2023-05-05T09:20:59.671Z,516.00
2023-05-05T09:21:59.189Z,500.00
2023-05-05T09:22:59.205Z,501.00
2023-05-05T09:24:04.930Z,500.00
2023-05-05T09:25:00.179Z,461.00
2023-05-05T09:25:59.172Z,442.00
2023-05-05T09:26:59.204Z,424.00
2023-05-05T09:27:59.152Z,432.00
2023-05-05T09:28:59.192Z,417.00
2023-05-05T09:29:59.150Z,479.00
2023-05-05T09:30:59.159Z,515.00
2023-05-05T09:31:59.139Z,543.00
2023-05-05T09:32:59.175Z,552.00
2023-05-05T09:33:59.127Z,557.00
2023-05-05T09:34:59.112Z,523.00
2023-05-05T09:35:59.210Z,514.00
2023-05-05T09:36:59.150Z,530.00
2023-05-05T09:37:59.090Z,581.00
2023-05-05T09:38:59.213Z,661.00
2023-05-05T09:39:59.092Z,803.00
2023-05-05T09:40:59.079Z,952.00
2023-05-05T09:41:59.063Z,1002.00
2023-05-05T09:42:59.067Z,919.00
2023-05-05T09:43:59.047Z,837.00
2023-05-05T09:44:59.977Z,827.00
2023-05-05T09:45:59.090Z,704.00
2023-05-05T09:46:59.016Z,666.00
2023-05-05T09:48:00.581Z,615.00
2023-05-05T09:48:59.133Z,583.00
2023-05-05T09:49:59.160Z,541.00
2023-05-05T09:50:59.224Z,500.00
2023-05-05T09:51:59.297Z,503.00
2023-05-05T09:52:59.436Z,497.00
2023-05-05T09:53:59.407Z,502.00
2023-05-05T09:54:59.497Z,504.00
2023-05-05T09:55:59.544Z,504.00
2023-05-05T09:56:59.561Z,508.00
2023-05-05T09:57:59.671Z,534.00
2023-05-05T09:58:59.720Z,528.00
2023-05-05T09:59:59.758Z,537.00
2023-05-05T10:00:59.795Z,559.00
2023-05-05T10:01:59.816Z,577.00
2023-05-05T10:02:59.864Z,582.00
2023-05-05T10:03:59.908Z,575.00
2023-05-05T10:05:01.623Z,549.00
2023-05-05T10:05:59.960Z,567.00
2023-05-05T10:06:59.951Z,557.00
2023-05-05T10:07:59.998Z,532.00
2023-05-05T10:09:00.086Z,513.00
2023-05-05T10:10:00.064Z,527.00
2023-05-05T10:11:00.067Z,520.00
2023-05-05T10:12:00.085Z,502.00
2023-05-05T10:13:00.164Z,505.00
2023-05-05T10:14:00.197Z,524.00
2023-05-05T10:15:00.170Z,516.00
2023-05-05T10:16:00.242Z,525.00
2023-05-05T10:17:00.194Z,525.00
2023-05-05T10:18:07.687Z,524.00
2023-05-05T10:19:01.199Z,519.00
2023-05-05T10:20:00.261Z,502.00
2023-05-05T10:21:00.262Z,491.00
2023-05-05T10:22:00.165Z,479.00
2023-05-05T10:23:00.164Z,474.00
2023-05-05T10:24:00.169Z,508.00
2023-05-05T10:25:00.514Z,539.00
2023-05-05T10:26:00.158Z,580.00
2023-05-05T10:27:00.154Z,574.00
2023-05-05T10:28:00.770Z,605.00
2023-05-05T10:29:00.148Z,671.00
2023-05-05T10:30:00.168Z,810.00
2023-05-05T10:31:00.140Z,910.00
2023-05-05T10:32:00.150Z,1062.00
2023-05-05T10:34:00.360Z,821.00
2023-05-05T10:35:00.093Z,850.00
2023-05-05T10:36:00.102Z,741.00
2023-05-05T10:37:00.071Z,654.00
2023-05-05T10:38:00.088Z,608.00
2023-05-05T10:39:00.051Z,566.00
2023-05-05T10:40:00.066Z,546.00
2023-05-05T10:41:00.139Z,516.00
2023-05-05T10:42:00.057Z,499.00
2023-05-05T10:43:00.043Z,500.00
2023-05-05T10:44:01.507Z,503.00
2023-05-05T10:45:00.060Z,514.00
2023-05-05T10:46:00.008Z,501.00
2023-05-05T10:46:59.999Z,505.00
2023-05-05T10:48:00.002Z,506.00
2023-05-05T10:49:00.017Z,508.00
2023-05-05T10:49:59.984Z,500.00
2023-05-05T10:51:00.012Z,505.00
2023-05-05T10:51:59.960Z,524.00
2023-05-05T10:52:59.971Z,515.00
2023-05-05T10:53:59.984Z,516.00
2023-05-05T10:54:59.962Z,518.00
2023-05-05T10:55:59.950Z,504.00
2023-05-05T10:57:00.028Z,500.00
2023-05-05T10:57:59.960Z,530.00
2023-05-05T10:59:00.811Z,524.00
2023-05-05T10:59:59.913Z,519.00
2023-05-05T11:00:59.939Z,536.00
2023-05-05T11:01:59.946Z,545.00
2023-05-05T11:02:59.995Z,567.00
2023-05-05T11:03:59.936Z,621.00
2023-05-05T11:04:59.905Z,595.00
2023-05-05T11:05:59.901Z,581.00
2023-05-05T11:06:59.911Z,577.00
2023-05-05T11:07:59.889Z,582.00
2023-05-05T11:08:59.846Z,615.00
2023-05-05T11:09:59.885Z,658.00
2023-05-05T11:10:59.894Z,761.00
2023-05-05T11:11:59.874Z,790.00
2023-05-05T11:12:59.927Z,849.00
2023-05-05T11:13:59.833Z,902.00
2023-05-05T11:14:59.864Z,906.00
2023-05-05T11:15:59.828Z,918.00
2023-05-05T11:16:59.842Z,911.00
2023-05-05T11:17:59.888Z,921.00
2023-05-05T11:18:59.801Z,906.00
2023-05-05T11:19:59.791Z,909.00
2023-05-05T11:20:59.857Z,888.00
2023-05-05T11:21:59.786Z,897.00
2023-05-05T11:22:59.786Z,875.00
2023-05-05T11:23:59.780Z,899.00
2023-05-05T11:25:00.228Z,895.00
2023-05-05T11:25:59.834Z,868.00
2023-05-05T11:26:59.766Z,838.00
2023-05-05T11:27:59.794Z,832.00
2023-05-05T11:28:59.872Z,830.00
2023-05-05T11:29:59.753Z,815.00
2023-05-05T11:30:59.955Z,794.00
2023-05-05T11:31:59.724Z,831.00
2023-05-05T11:32:59.748Z,788.00
2023-05-05T11:33:59.811Z,780.00
2023-05-05T11:34:59.707Z,757.00
2023-05-05T11:35:59.693Z,708.00
2023-05-05T11:36:59.671Z,698.00
2023-05-05T11:37:59.856Z,731.00
2023-05-05T11:38:59.696Z,660.00
2023-05-05T11:39:59.703Z,656.00
2023-05-05T11:40:59.687Z,645.00
2023-05-05T11:41:59.675Z,633.00
2023-05-05T11:42:59.668Z,628.00
2023-05-05T11:43:59.696Z,644.00
2023-05-05T11:44:59.754Z,633.00
2023-05-05T11:45:59.753Z,632.00
2023-05-05T11:46:59.679Z,674.00
2023-05-05T11:47:59.779Z,699.00
2023-05-05T11:48:59.664Z,797.00
2023-05-05T11:49:59.663Z,878.00
2023-05-05T11:50:59.701Z,957.00
2023-05-05T11:51:59.688Z,1074.00
2023-05-05T11:52:59.711Z,1243.00
2023-05-05T11:53:59.746Z,1467.00
2023-05-05T11:54:59.766Z,1641.00
2023-05-05T11:55:59.786Z,1847.00
2023-05-05T11:56:59.820Z,1976.00
2023-05-05T11:57:59.898Z,2144.00
2023-05-05T11:58:59.981Z,2171.00
2023-05-05T12:00:00.052Z,2307.00
2023-05-05T12:01:00.198Z,2492.00
2023-05-05T12:02:00.143Z,2562.00
2023-05-05T12:03:00.278Z,2726.00
2023-05-05T12:04:00.399Z,2822.00
2023-05-05T12:05:00.417Z,2895.00
2023-05-05T12:06:00.363Z,2991.00
2023-05-05T12:07:00.453Z,3012.00
2023-05-05T12:08:00.479Z,3110.00
2023-05-05T12:09:00.558Z,3190.00
2023-05-05T12:10:00.610Z,3266.00
2023-05-05T12:11:00.627Z,3319.00
2023-05-05T12:12:00.675Z,3352.00
2023-05-05T12:13:00.843Z,3397.00
2023-05-05T12:14:00.778Z,3408.00